Much Wenlock, United Kingdom
Current Conditions -  °F | °C
As of 11:50 PM on Wednesday 22 Oct 2014 (Local Time) from EGOS Reporting Station
Broken Clouds Broken Clouds  
Wind Chill: 54°   Ceiling: 2400
Heat Index: 54°   Visibility: 6mi
Dew Point: 46°   Wind: 8mph
Humidity: 77%   Direction: 220°SW
Pressure: 30.12"   Gusts: NA
Location:  52.6°N, 2.56°W
Report Text: EGOS 222250Z AUTO 22007KT 9999 BKN024/// SCT100/// 12/08 Q1020
Loading
Personal Weather Stations






























Interactive Weather Map
Tropical Storm Tracking
New forecast layout! Learn more

10-Day Weather Forecast

Advertisements
Track Severe Weather on mobile